createdAt,value
2023-01-29T00:01:55.929Z,762.83
2023-01-29T00:04:23.138Z,759.38
2023-01-29T00:06:49.769Z,762.38
2023-01-29T00:09:16.363Z,761.77
2023-01-29T00:11:42.984Z,761.75
2023-01-29T00:14:09.788Z,768.17
2023-01-29T00:16:36.398Z,768.25
2023-01-29T00:19:03.512Z,766.55
2023-01-29T00:21:31.103Z,764.60
2023-01-29T00:23:58.175Z,764.17
2023-01-29T00:26:25.014Z,767.97
2023-01-29T00:28:51.976Z,776.20
2023-01-29T00:31:23.382Z,779.10
2023-01-29T00:33:50.078Z,787.47
2023-01-29T00:36:18.349Z,769.20
2023-01-29T00:38:44.950Z,775.60
2023-01-29T00:41:34.767Z,770.85
2023-01-29T00:44:20.514Z,772.45
2023-01-29T00:46:47.102Z,777.77
2023-01-29T00:49:13.696Z,779.05
2023-01-29T00:51:40.316Z,778.03
2023-01-29T00:54:07.179Z,776.65
2023-01-29T00:56:37.192Z,771.58
2023-01-29T00:59:04.650Z,777.40
2023-01-29T01:01:49.980Z,772.85
2023-01-29T01:04:16.520Z,767.97
2023-01-29T01:06:43.076Z,768.60
2023-01-29T01:09:29.539Z,774.03
2023-01-29T01:11:56.180Z,771.38
2023-01-29T01:14:22.716Z,771.65
2023-01-29T01:16:49.543Z,780.78
2023-01-29T01:19:16.216Z,787.08
2023-01-29T01:21:48.208Z,782.38
2023-01-29T01:24:15.392Z,783.97
2023-01-29T01:26:41.999Z,781.85
2023-01-29T01:29:09.191Z,790.03
2023-01-29T01:31:35.854Z,787.90
2023-01-29T01:34:02.475Z,775.85
2023-01-29T01:36:31.468Z,780.87
2023-01-29T01:38:58.623Z,775.47
2023-01-29T01:41:25.657Z,773.75
2023-01-29T01:44:00.784Z,776.38
2023-01-29T01:46:33.750Z,785.30
2023-01-29T01:49:04.452Z,782.00
2023-01-29T01:51:32.822Z,786.38
2023-01-29T01:54:19.145Z,786.37
2023-01-29T01:56:49.416Z,792.03
2023-01-29T01:59:18.838Z,795.47
2023-01-29T02:01:51.227Z,793.03
2023-01-29T02:04:39.384Z,787.22
2023-01-29T02:07:26.795Z,780.95
2023-01-29T02:10:12.489Z,786.22
2023-01-29T02:12:39.452Z,782.50
2023-01-29T02:15:07.050Z,783.10
2023-01-29T02:17:33.593Z,783.55
2023-01-29T02:20:00.140Z,784.80
2023-01-29T02:22:56.447Z,781.65
2023-01-29T02:25:47.994Z,785.45
2023-01-29T02:28:40.719Z,779.80
2023-01-29T02:31:31.957Z,790.80
2023-01-29T02:34:24.628Z,782.80
2023-01-29T02:37:00.436Z,777.77
2023-01-29T02:39:37.911Z,780.40
2023-01-29T02:42:35.874Z,778.58
2023-01-29T02:45:16.075Z,784.17
2023-01-29T02:47:48.587Z,778.10
2023-01-29T02:50:20.080Z,782.17
2023-01-29T02:52:58.787Z,784.53
2023-01-29T02:55:38.725Z,780.75
2023-01-29T02:58:12.082Z,787.53
2023-01-29T03:00:45.136Z,781.57
2023-01-29T03:03:21.345Z,782.88
2023-01-29T03:06:06.497Z,789.03
2023-01-29T03:08:43.232Z,791.47
2023-01-29T03:11:15.222Z,793.80
2023-01-29T03:14:10.456Z,795.30
2023-01-29T03:16:49.978Z,784.95
2023-01-29T03:19:20.733Z,789.88
2023-01-29T03:22:00.396Z,790.55
2023-01-29T03:25:04.218Z,786.15
2023-01-29T03:27:56.339Z,793.83
2023-01-29T03:30:44.425Z,788.42
2023-01-29T03:34:00.106Z,794.40
2023-01-29T03:36:39.587Z,783.00
2023-01-29T03:39:07.426Z,796.37
2023-01-29T03:41:52.763Z,782.00
2023-01-29T03:44:30.725Z,784.00
2023-01-29T03:47:18.459Z,784.15
2023-01-29T03:49:50.998Z,809.63
2023-01-29T03:52:23.488Z,816.28
2023-01-29T03:55:10.594Z,811.22
2023-01-29T03:57:45.671Z,818.00
2023-01-29T04:00:22.801Z,800.95
2023-01-29T04:03:09.813Z,806.78
2023-01-29T04:05:52.721Z,806.33
2023-01-29T04:08:29.387Z,811.70
2023-01-29T04:11:00.224Z,795.03
2023-01-29T04:13:27.236Z,791.70
2023-01-29T04:15:56.875Z,790.38
2023-01-29T04:18:50.828Z,789.95
2023-01-29T04:21:22.784Z,794.43
2023-01-29T04:23:49.356Z,799.13
2023-01-29T04:26:25.301Z,795.90
2023-01-29T04:29:22.009Z,793.33
2023-01-29T04:32:34.222Z,797.05
2023-01-29T04:35:08.950Z,792.85
2023-01-29T04:37:41.458Z,793.23
2023-01-29T04:40:19.135Z,785.85
2023-01-29T04:42:53.478Z,789.88
2023-01-29T04:45:28.582Z,782.72
2023-01-29T04:48:00.668Z,788.95
2023-01-29T04:50:35.740Z,784.78
2023-01-29T04:53:09.427Z,784.20
2023-01-29T04:55:43.780Z,782.92
2023-01-29T04:58:16.823Z,784.47
2023-01-29T05:00:44.689Z,781.42
2023-01-29T05:03:14.133Z,788.38
2023-01-29T05:05:42.935Z,783.67
2023-01-29T05:08:11.781Z,789.42
2023-01-29T05:10:38.957Z,788.37
2023-01-29T05:13:07.948Z,783.57
2023-01-29T05:15:38.519Z,787.60
2023-01-29T05:18:08.743Z,787.17
2023-01-29T05:20:37.844Z,790.43
2023-01-29T05:23:04.479Z,787.23
2023-01-29T05:25:32.894Z,785.55
2023-01-29T05:28:06.420Z,790.60
2023-01-29T05:30:35.048Z,781.20
2023-01-29T05:33:02.071Z,789.05
2023-01-29T05:35:28.777Z,782.93
2023-01-29T05:37:59.493Z,795.65
2023-01-29T05:40:26.103Z,794.83
2023-01-29T05:42:52.684Z,787.05
2023-01-29T05:45:19.722Z,807.60
2023-01-29T05:47:46.806Z,785.72
2023-01-29T05:50:14.283Z,792.47
2023-01-29T05:52:41.033Z,786.05
2023-01-29T05:55:09.575Z,794.47
2023-01-29T05:57:36.212Z,781.95
2023-01-29T06:00:04.422Z,764.15
2023-01-29T06:02:39.096Z,771.88
2023-01-29T06:05:05.837Z,786.77
2023-01-29T06:07:32.416Z,785.85
2023-01-29T06:09:58.997Z,788.77
2023-01-29T06:12:27.153Z,784.58
2023-01-29T06:14:53.681Z,790.13
2023-01-29T06:17:20.210Z,787.63
2023-01-29T06:19:46.766Z,801.38
2023-01-29T06:22:13.322Z,799.15
2023-01-29T06:24:39.888Z,795.47
2023-01-29T06:27:06.905Z,800.28
2023-01-29T06:29:33.494Z,796.95
2023-01-29T06:32:00.111Z,798.57
2023-01-29T06:34:26.776Z,805.35
2023-01-29T06:36:53.809Z,804.38
2023-01-29T06:39:20.325Z,802.72
2023-01-29T06:41:46.950Z,808.30
2023-01-29T06:44:13.687Z,808.70
2023-01-29T06:46:40.732Z,801.63
2023-01-29T06:49:07.340Z,799.75
2023-01-29T06:51:33.923Z,802.90
2023-01-29T06:54:00.452Z,811.53
2023-01-29T06:56:27.006Z,797.15
2023-01-29T06:58:54.180Z,787.23
2023-01-29T07:01:36.887Z,793.28
2023-01-29T07:04:03.835Z,802.92
2023-01-29T07:06:30.545Z,798.50
2023-01-29T07:08:57.108Z,796.70
2023-01-29T07:11:23.728Z,791.03
2023-01-29T07:13:50.275Z,795.95
2023-01-29T07:16:17.092Z,795.42
2023-01-29T07:18:43.705Z,794.85
2023-01-29T07:21:10.296Z,803.15
2023-01-29T07:23:37.469Z,800.28
2023-01-29T07:26:05.434Z,795.00
2023-01-29T07:28:32.331Z,786.83
2023-01-29T07:30:59.370Z,789.07
2023-01-29T07:33:26.256Z,792.33
2023-01-29T07:35:53.204Z,787.22
2023-01-29T07:38:19.772Z,793.42
2023-01-29T07:40:46.784Z,782.45
2023-01-29T07:43:13.545Z,792.38
2023-01-29T07:45:40.464Z,789.63
2023-01-29T07:48:09.461Z,789.08
2023-01-29T07:50:36.016Z,788.10
2023-01-29T07:53:02.741Z,790.80
2023-01-29T07:55:29.803Z,793.20
2023-01-29T07:57:58.309Z,774.83
2023-01-29T08:00:25.162Z,778.60
2023-01-29T08:02:52.374Z,775.50
2023-01-29T08:05:19.028Z,774.15
2023-01-29T08:07:49.359Z,779.30
2023-01-29T08:10:23.865Z,774.95
2023-01-29T08:12:58.679Z,780.53
2023-01-29T08:15:25.746Z,783.83
2023-01-29T08:17:57.956Z,784.30
2023-01-29T08:20:39.772Z,788.50
2023-01-29T08:23:09.473Z,780.90
2023-01-29T08:25:36.182Z,782.88
2023-01-29T08:28:02.842Z,781.38
2023-01-29T08:30:31.599Z,780.92
2023-01-29T08:32:58.364Z,800.90
2023-01-29T08:35:25.340Z,793.47
2023-01-29T08:38:02.304Z,791.97
2023-01-29T08:40:33.827Z,795.50
2023-01-29T08:43:02.701Z,802.17
2023-01-29T08:45:30.827Z,802.27
2023-01-29T08:47:57.423Z,801.97
2023-01-29T08:50:24.000Z,798.80
2023-01-29T08:52:50.695Z,803.47
2023-01-29T08:55:18.735Z,804.10
2023-01-29T08:57:45.820Z,799.45
2023-01-29T09:00:13.161Z,798.25
2023-01-29T09:02:39.794Z,786.23
2023-01-29T09:05:07.230Z,796.70
2023-01-29T09:07:34.066Z,800.65
2023-01-29T09:10:02.874Z,804.60
2023-01-29T09:12:30.047Z,798.60
2023-01-29T09:14:56.581Z,803.15
2023-01-29T09:17:23.201Z,796.03
2023-01-29T09:19:49.814Z,802.65
2023-01-29T09:22:16.346Z,809.03
2023-01-29T09:24:43.304Z,803.97
2023-01-29T09:27:10.867Z,804.38
2023-01-29T09:29:37.729Z,799.63
2023-01-29T09:32:05.031Z,803.70
2023-01-29T09:34:33.654Z,797.42
2023-01-29T09:37:00.238Z,798.17
2023-01-29T09:39:26.990Z,801.25
2023-01-29T09:42:00.409Z,803.20
2023-01-29T09:44:47.432Z,797.10
2023-01-29T09:47:16.229Z,796.60
2023-01-29T09:49:47.312Z,799.63
2023-01-29T09:52:35.423Z,806.13
2023-01-29T09:55:29.381Z,806.88
2023-01-29T09:58:01.525Z,790.20
2023-01-29T10:00:40.512Z,800.55
2023-01-29T10:03:26.009Z,794.30
2023-01-29T10:06:30.164Z,799.30
2023-01-29T10:08:59.765Z,795.40
2023-01-29T10:11:44.842Z,800.83
2023-01-29T10:14:53.845Z,804.30
2023-01-29T10:17:44.279Z,800.17
2023-01-29T10:20:55.138Z,800.53
2023-01-29T10:23:29.442Z,801.33
2023-01-29T10:25:56.069Z,801.72
2023-01-29T10:28:29.442Z,798.40
2023-01-29T10:31:12.432Z,796.10
2023-01-29T10:34:02.491Z,796.50
2023-01-29T10:36:36.487Z,803.60
2023-01-29T10:39:03.155Z,794.80
2023-01-29T10:41:38.477Z,794.50
2023-01-29T10:44:44.097Z,794.58
2023-01-29T10:47:26.125Z,800.75
2023-01-29T10:50:15.054Z,792.20
2023-01-29T10:52:50.602Z,792.23
2023-01-29T10:55:39.805Z,790.47
2023-01-29T10:58:31.884Z,795.00
2023-01-29T11:00:58.739Z,798.28
2023-01-29T11:03:33.467Z,799.30
2023-01-29T11:11:17.864Z,798.77
2023-01-29T11:14:08.934Z,796.37
2023-01-29T11:16:43.543Z,800.45
2023-01-29T11:19:10.708Z,791.27
2023-01-29T11:21:57.635Z,791.80
2023-01-29T11:24:24.885Z,790.35
2023-01-29T11:26:58.519Z,789.50
2023-01-29T11:29:39.968Z,794.57
2023-01-29T11:32:34.361Z,800.97
2023-01-29T11:37:39.910Z,788.10
2023-01-29T11:47:56.059Z,807.65
2023-01-29T11:50:25.539Z,814.30
2023-01-29T11:52:52.333Z,809.55
2023-01-29T11:55:22.030Z,813.70
2023-01-29T11:57:51.682Z,805.60
2023-01-29T12:00:27.036Z,814.45
2023-01-29T12:03:05.239Z,805.70
2023-01-29T12:05:31.780Z,802.85
2023-01-29T12:08:00.779Z,809.67
2023-01-29T12:10:35.480Z,804.63
2023-01-29T12:13:11.100Z,808.90
2023-01-29T12:15:38.889Z,808.95
2023-01-29T12:18:30.391Z,801.47
2023-01-29T12:21:05.739Z,807.58
2023-01-29T12:23:57.396Z,804.67
2023-01-29T12:26:27.902Z,805.05
2023-01-29T12:29:15.902Z,809.27
2023-01-29T12:31:50.502Z,811.00
2023-01-29T12:34:19.768Z,811.80
2023-01-29T12:37:31.230Z,807.10
2023-01-29T12:39:57.759Z,806.08
2023-01-29T12:42:24.509Z,811.55
2023-01-29T12:44:55.446Z,800.30
2023-01-29T12:47:31.824Z,797.45
2023-01-29T12:50:03.437Z,801.72
2023-01-29T12:52:54.467Z,795.15
2023-01-29T12:55:32.271Z,796.15
2023-01-29T12:58:01.152Z,787.65
2023-01-29T13:00:48.671Z,781.90
2023-01-29T13:03:29.537Z,783.60
2023-01-29T13:11:27.140Z,793.20
2023-01-29T13:14:04.444Z,803.50
2023-01-29T13:16:37.871Z,806.20
2023-01-29T13:19:15.295Z,813.33
2023-01-29T13:21:43.822Z,806.10
2023-01-29T13:26:39.163Z,799.83
2023-01-29T13:29:06.109Z,805.80
2023-01-29T13:31:38.966Z,804.70
2023-01-29T13:34:28.333Z,802.65
2023-01-29T13:36:56.929Z,806.80
2023-01-29T13:39:27.683Z,810.50
2023-01-29T13:41:55.536Z,805.15
2023-01-29T13:44:24.284Z,803.20
2023-01-29T13:46:59.185Z,795.70
2023-01-29T13:49:37.808Z,793.53
2023-01-29T13:52:28.624Z,796.88
2023-01-29T13:54:58.279Z,799.50
2023-01-29T13:57:43.696Z,800.10
2023-01-29T14:00:22.530Z,806.05
2023-01-29T14:02:54.930Z,791.97
2023-01-29T14:05:30.646Z,797.58
2023-01-29T14:08:06.106Z,799.00
2023-01-29T14:10:33.935Z,802.85
2023-01-29T14:13:03.439Z,799.97
2023-01-29T14:15:34.974Z,798.45
2023-01-29T14:18:10.849Z,801.83
2023-01-29T14:20:46.098Z,798.35
2023-01-29T14:23:41.967Z,801.50
2023-01-29T14:26:28.933Z,799.83
2023-01-29T14:29:03.223Z,800.35
2023-01-29T14:31:52.368Z,802.78
2023-01-29T14:34:31.550Z,799.92
2023-01-29T14:37:04.014Z,793.80
2023-01-29T14:39:51.645Z,802.45
2023-01-29T14:42:29.017Z,803.97
2023-01-29T14:44:55.434Z,801.92
2023-01-29T14:47:28.044Z,802.08
2023-01-29T14:55:09.153Z,808.10
2023-01-29T15:00:19.165Z,802.30
2023-01-29T15:02:46.329Z,803.90
2023-01-29T15:05:20.929Z,799.05
2023-01-29T15:07:52.467Z,801.40
2023-01-29T15:10:23.021Z,801.55
2023-01-29T15:13:07.876Z,872.90
2023-01-29T15:15:52.657Z,800.33
2023-01-29T15:18:23.490Z,801.58
2023-01-29T15:20:49.995Z,799.80
2023-01-29T15:23:25.751Z,805.75
2023-01-29T15:25:54.668Z,824.40
2023-01-29T15:28:21.324Z,867.70
2023-01-29T15:30:53.521Z,819.50
2023-01-29T15:35:49.874Z,831.60
2023-01-29T15:38:21.560Z,800.30
2023-01-29T15:48:33.116Z,797.50
2023-01-29T15:50:59.927Z,804.50
2023-01-29T15:56:02.233Z,792.10
2023-01-29T16:05:51.948Z,823.90
2023-01-29T16:08:18.836Z,836.20
2023-01-29T16:18:35.961Z,840.70
2023-01-29T16:21:12.887Z,815.50
2023-01-29T16:23:45.099Z,820.90
2023-01-29T16:31:10.530Z,821.40
2023-01-29T16:41:06.715Z,821.50
2023-01-29T16:48:45.369Z,819.00
2023-01-29T16:51:26.569Z,818.00
2023-01-29T16:54:01.176Z,820.00
2023-01-29T16:56:30.465Z,833.05
2023-01-29T16:58:57.299Z,830.20
2023-01-29T17:04:07.619Z,826.30
2023-01-29T17:09:01.188Z,820.10
2023-01-29T17:14:05.325Z,715.53
2023-01-29T17:16:34.550Z,728.22
2023-01-29T17:19:01.329Z,719.20
2023-01-29T17:21:28.942Z,721.17
2023-01-29T17:23:55.545Z,718.10
2023-01-29T17:26:23.197Z,714.78
2023-01-29T17:28:50.620Z,714.45
2023-01-29T17:31:17.268Z,723.53
2023-01-29T17:33:44.661Z,719.78
2023-01-29T17:36:14.528Z,724.72
2023-01-29T17:38:41.416Z,725.92
2023-01-29T17:41:24.887Z,727.97
2023-01-29T17:43:51.818Z,724.90
2023-01-29T17:46:18.671Z,720.70
2023-01-29T17:48:45.651Z,724.63
2023-01-29T17:51:16.630Z,726.42
2023-01-29T17:53:46.225Z,725.60
2023-01-29T17:56:27.428Z,724.63
2023-01-29T17:58:54.039Z,721.42
2023-01-29T18:01:20.683Z,728.72
2023-01-29T18:03:47.304Z,728.07
2023-01-29T18:06:26.208Z,727.90
2023-01-29T18:08:52.810Z,726.60
2023-01-29T18:11:19.380Z,725.60
2023-01-29T18:13:46.239Z,733.83
2023-01-29T18:16:12.779Z,728.63
2023-01-29T18:18:40.376Z,730.58
2023-01-29T18:21:07.936Z,725.73
2023-01-29T18:23:34.562Z,726.92
2023-01-29T18:26:01.220Z,731.95
2023-01-29T18:28:27.799Z,731.90
2023-01-29T18:30:54.372Z,736.67
2023-01-29T18:33:21.068Z,733.30
2023-01-29T18:35:50.528Z,735.17
2023-01-29T18:38:17.435Z,733.78
2023-01-29T18:40:44.076Z,739.35
2023-01-29T18:43:10.594Z,738.42
2023-01-29T18:45:37.220Z,737.73
2023-01-29T18:48:03.917Z,732.20
2023-01-29T18:50:30.665Z,735.30
2023-01-29T18:52:57.286Z,733.15
2023-01-29T18:55:24.455Z,731.38
2023-01-29T18:58:33.980Z,733.13
2023-01-29T19:00:41.979Z,731.50
2023-01-29T19:03:08.519Z,738.67
2023-01-29T19:05:35.098Z,735.87
2023-01-29T19:08:01.956Z,732.38
2023-01-29T19:10:28.523Z,731.13
2023-01-29T19:12:55.042Z,734.47
2023-01-29T19:15:22.717Z,733.35
2023-01-29T19:17:50.546Z,730.90
2023-01-29T19:20:17.644Z,739.28
2023-01-29T19:22:44.231Z,729.38
2023-01-29T19:25:10.869Z,736.80
2023-01-29T19:27:37.714Z,729.58
2023-01-29T19:30:05.807Z,731.25
2023-01-29T19:32:32.715Z,731.72
2023-01-29T19:34:59.271Z,725.63
2023-01-29T19:37:26.062Z,729.65
2023-01-29T19:39:53.818Z,726.00
2023-01-29T19:42:20.942Z,733.20
2023-01-29T19:44:47.717Z,727.25
2023-01-29T19:47:14.299Z,728.60
2023-01-29T19:49:40.901Z,724.97
2023-01-29T19:52:14.889Z,710.93
2023-01-29T19:54:46.596Z,722.38
2023-01-29T19:57:13.257Z,720.17
2023-01-29T19:59:39.879Z,721.88
2023-01-29T20:02:06.603Z,723.93
2023-01-29T20:04:33.283Z,716.58
2023-01-29T20:07:00.324Z,726.22
2023-01-29T20:09:29.341Z,724.13
2023-01-29T20:11:55.853Z,720.92
2023-01-29T20:14:22.486Z,728.50
2023-01-29T20:16:49.025Z,722.50
2023-01-29T20:19:16.344Z,721.58
2023-01-29T20:21:45.781Z,715.55
2023-01-29T20:24:12.957Z,717.10
2023-01-29T20:26:39.811Z,720.45
2023-01-29T20:29:06.570Z,723.20
2023-01-29T20:31:33.274Z,724.13
2023-01-29T20:33:59.873Z,721.42
2023-01-29T20:36:26.473Z,717.75
2023-01-29T20:38:53.034Z,719.13
2023-01-29T20:41:19.909Z,723.38
2023-01-29T20:43:47.056Z,720.05
2023-01-29T20:46:13.951Z,724.07
2023-01-29T20:48:42.050Z,723.65
2023-01-29T20:51:13.038Z,723.67
2023-01-29T20:53:44.268Z,729.10
2023-01-29T20:56:11.403Z,742.47
2023-01-29T20:58:38.180Z,725.50
2023-01-29T21:01:11.917Z,727.55
2023-01-29T21:03:39.413Z,718.03
2023-01-29T21:06:06.791Z,723.80
2023-01-29T21:08:33.556Z,724.03
2023-01-29T21:11:00.135Z,720.60
2023-01-29T21:13:26.700Z,718.47
2023-01-29T21:15:53.303Z,717.75
2023-01-29T21:18:26.124Z,715.47
2023-01-29T21:21:19.173Z,711.92
2023-01-29T21:24:18.213Z,715.67
2023-01-29T21:26:51.666Z,718.47
2023-01-29T21:29:31.363Z,722.97
2023-01-29T21:32:17.539Z,720.47
2023-01-29T21:35:08.113Z,722.50
2023-01-29T21:37:45.733Z,716.13
2023-01-29T21:40:47.456Z,719.60
2023-01-29T21:43:23.381Z,718.30
2023-01-29T21:46:16.609Z,714.78
2023-01-29T21:48:53.560Z,716.33
2023-01-29T21:51:27.631Z,715.97
2023-01-29T21:54:07.070Z,709.80
2023-01-29T21:56:48.865Z,717.03
2023-01-29T21:59:41.505Z,718.15
2023-01-29T22:02:17.574Z,712.83
2023-01-29T22:04:53.006Z,729.25
2023-01-29T22:07:24.331Z,746.00
2023-01-29T22:09:56.726Z,754.33
2023-01-29T22:12:30.689Z,755.73
2023-01-29T22:15:11.936Z,764.40
2023-01-29T22:17:57.897Z,763.63
2023-01-29T22:20:31.404Z,759.42
2023-01-29T22:23:18.109Z,758.03
2023-01-29T22:26:08.524Z,762.35
2023-01-29T22:28:41.914Z,760.85
2023-01-29T22:31:13.766Z,763.90
2023-01-29T22:34:22.147Z,762.60
2023-01-29T22:37:01.957Z,759.53
2023-01-29T22:39:44.354Z,758.50
2023-01-29T22:42:17.494Z,761.30
2023-01-29T22:44:57.979Z,757.33
2023-01-29T22:47:39.156Z,756.30
2023-01-29T22:50:07.530Z,758.50
2023-01-29T22:52:43.593Z,632.40
2023-01-29T22:55:18.243Z,649.78
2023-01-29T22:58:15.374Z,620.42
2023-01-29T23:01:04.662Z,116.40
2023-01-29T23:04:06.844Z,366.30
2023-01-29T23:06:48.604Z,652.47
2023-01-29T23:09:23.346Z,615.53
2023-01-29T23:12:02.721Z,646.72
2023-01-29T23:14:42.418Z,621.22
2023-01-29T23:17:18.075Z,613.67
2023-01-29T23:20:08.053Z,609.95
2023-01-29T23:23:00.228Z,617.70
2023-01-29T23:25:54.438Z,620.38
2023-01-29T23:28:20.983Z,628.30
2023-01-29T23:30:47.903Z,649.33
2023-01-29T23:33:14.762Z,644.97
2023-01-29T23:35:41.687Z,642.35
2023-01-29T23:38:08.208Z,645.50
2023-01-29T23:40:34.744Z,646.20
2023-01-29T23:43:01.424Z,651.23
2023-01-29T23:45:27.953Z,651.50
2023-01-29T23:47:54.452Z,644.75
2023-01-29T23:50:20.975Z,645.07
2023-01-29T23:52:47.517Z,632.30
2023-01-29T23:55:14.033Z,640.67
2023-01-29T23:57:40.590Z,641.97
